Time;durP1;ratioP1;P1;durP2;ratioP2;P2;SDS_P1;SDS_P2;PMS_P1;PMS_P2;Temp;Humidity;BMP_temperature;BMP_pressure;BME280_temperature;BME280_humidity;BME280_pressure;Samples;Min_cycle;Max_cycle;Signal;HPM_P1;HPM_P2
2020/12/31 00:00:43;;;;;;;19.75;13.93;;;4.10;91.30;;;;;;5091065;28;20029;-77
2020/12/31 00:03:08;;;;;;;20.02;14.95;;;4.10;91.30;;;;;;5097069;28;20028;-74
2020/12/31 00:05:34;;;;;;;22.70;14.02;;;4.10;91.30;;;;;;5095071;28;20119;-73
2020/12/31 00:07:59;;;;;;;22.38;14.23;;;4.10;91.20;;;;;;5094402;28;20039;-74
2020/12/31 00:10:30;;;;;;;20.88;15.25;;;4.10;91.30;;;;;;5071265;28;20032;-73
2020/12/31 00:12:56;;;;;;;21.75;15.38;;;4.20;91.40;;;;;;5096701;28;20509;-73
2020/12/31 00:15:22;;;;;;;20.95;15.02;;;4.10;91.30;;;;;;5093127;28;20038;-73
2020/12/31 00:17:47;;;;;;;20.80;15.35;;;4.10;91.40;;;;;;5095131;28;20032;-74
2020/12/31 00:20:13;;;;;;;18.48;14.38;;;4.10;91.40;;;;;;5095645;28;20041;-73
2020/12/31 00:22:39;;;;;;;19.00;14.82;;;4.10;91.30;;;;;;5092425;28;20068;-74
2020/12/31 00:25:09;;;;;;;19.85;15.13;;;4.10;91.40;;;;;;5093884;28;20117;-74
2020/12/31 00:27:35;;;;;;;20.95;16.38;;;4.10;91.40;;;;;;5094298;28;20043;-74
2020/12/31 00:30:00;;;;;;;19.80;14.80;;;4.20;91.40;;;;;;5092568;28;20028;-76
2020/12/31 00:32:26;;;;;;;21.27;16.35;;;4.10;91.40;;;;;;5090650;28;20115;-74
2020/12/31 00:34:52;;;;;;;20.33;15.55;;;4.10;91.40;;;;;;5093567;28;20378;-72
2020/12/31 00:37:17;;;;;;;20.77;14.55;;;4.10;91.50;;;;;;5093999;28;20043;-74
2020/12/31 00:39:43;;;;;;;22.40;15.05;;;4.10;91.50;;;;;;5103550;28;20031;-73
2020/12/31 00:42:09;;;;;;;21.92;15.50;;;4.10;91.50;;;;;;5091983;28;20068;-73
2020/12/31 00:44:34;;;;;;;19.73;14.85;;;4.10;91.70;;;;;;5092375;28;20047;-75
2020/12/31 00:47:00;;;;;;;22.25;15.55;;;4.10;91.70;;;;;;5094922;28;20073;-73
2020/12/31 00:49:25;;;;;;;19.80;14.43;;;4.10;91.60;;;;;;5096057;28;20035;-74
2020/12/31 00:51:51;;;;;;;20.48;14.90;;;4.00;91.70;;;;;;5093291;28;20032;-73
2020/12/31 00:54:17;;;;;;;21.85;15.70;;;4.00;91.60;;;;;;5090647;28;20044;-74
2020/12/31 00:56:42;;;;;;;18.73;14.43;;;4.00;91.60;;;;;;5093027;28;20027;-74
2020/12/31 00:59:08;;;;;;;22.20;15.65;;;4.10;91.70;;;;;;5093764;28;20423;-74
2020/12/31 01:01:34;;;;;;;18.95;13.80;;;4.00;91.70;;;;;;5094776;28;21067;-74
2020/12/31 01:03:59;;;;;;;21.95;15.15;;;4.00;91.70;;;;;;5088255;28;20031;-73
2020/12/31 01:06:25;;;;;;;20.00;14.77;;;4.00;91.90;;;;;;5090374;28;20035;-76
2020/12/31 01:08:51;;;;;;;21.48;15.27;;;4.00;91.80;;;;;;5094471;28;20032;-74
2020/12/31 01:11:19;;;;;;;19.95;14.38;;;4.00;91.90;;;;;;5090628;28;20115;-75
2020/12/31 01:13:45;;;;;;;22.45;15.48;;;3.90;91.80;;;;;;5089064;28;20053;-75
2020/12/31 01:16:11;;;;;;;20.15;15.02;;;3.90;91.90;;;;;;5092205;28;20032;-74
2020/12/31 01:18:37;;;;;;;19.58;13.57;;;3.90;92.00;;;;;;5091479;28;20089;-73
2020/12/31 01:21:08;;;;;;;19.38;14.43;;;4.00;92.00;;;;;;5094492;28;20028;-73
2020/12/31 01:23:34;;;;;;;22.73;14.07;;;4.00;91.90;;;;;;5089418;28;20123;-75
2020/12/31 01:25:59;;;;;;;22.55;14.80;;;4.00;91.90;;;;;;5091253;28;20040;-77
2020/12/31 01:28:25;;;;;;;18.77;13.68;;;3.90;91.90;;;;;;5091266;28;20027;-74
2020/12/31 01:30:51;;;;;;;20.00;14.73;;;3.90;92.00;;;;;;5091903;28;20069;-73
2020/12/31 01:33:16;;;;;;;19.20;14.40;;;3.90;92.00;;;;;;5091913;28;20068;-73
2020/12/31 01:35:42;;;;;;;18.83;13.85;;;4.00;92.00;;;;;;5092660;28;20033;-74
2020/12/31 01:38:08;;;;;;;18.50;14.13;;;4.00;91.90;;;;;;5082271;28;20556;-73
2020/12/31 01:40:33;;;;;;;22.42;13.90;;;4.00;92.00;;;;;;5091369;28;20036;-74
2020/12/31 01:42:59;;;;;;;18.17;13.15;;;4.00;92.00;;;;;;5091331;28;20035;-74
2020/12/31 01:45:24;;;;;;;18.88;13.00;;;4.00;92.00;;;;;;5104052;28;20449;-74
2020/12/31 01:47:50;;;;;;;19.33;13.75;;;4.00;92.00;;;;;;5092030;28;20078;-74
2020/12/31 01:50:18;;;;;;;18.58;14.43;;;4.00;92.00;;;;;;5090012;28;20055;-74
2020/12/31 01:52:46;;;;;;;23.35;14.95;;;4.00;92.00;;;;;;5093098;28;20266;-75
2020/12/31 01:55:12;;;;;;;17.73;12.60;;;4.00;92.00;;;;;;5098190;28;20034;-73
2020/12/31 01:57:38;;;;;;;20.70;13.65;;;4.00;92.00;;;;;;5087483;28;20028;-76
2020/12/31 02:00:04;;;;;;;20.25;13.02;;;4.00;92.10;;;;;;5089316;28;20232;-73
2020/12/31 02:02:29;;;;;;;19.17;12.52;;;4.00;92.00;;;;;;5091634;28;20081;-74
2020/12/31 02:04:57;;;;;;;20.25;13.88;;;4.00;92.00;;;;;;5091134;28;20043;-73
2020/12/31 02:07:23;;;;;;;19.23;13.52;;;4.00;92.00;;;;;;5093426;28;20038;-75
2020/12/31 02:09:49;;;;;;;18.70;12.40;;;4.00;92.00;;;;;;5090147;28;20099;-75
2020/12/31 02:12:15;;;;;;;19.02;12.88;;;4.00;92.00;;;;;;5088945;28;20474;-73
2020/12/31 02:14:49;;;;;;;18.63;12.35;;;4.00;92.00;;;;;;5072467;28;20033;-74
2020/12/31 02:17:14;;;;;;;20.08;11.98;;;4.00;92.10;;;;;;5075480;28;20423;-74
2020/12/31 02:19:40;;;;;;;16.90;12.65;;;4.00;92.00;;;;;;5091474;28;20467;-73
2020/12/31 02:22:06;;;;;;;17.70;12.63;;;3.90;92.00;;;;;;5095777;28;20028;-73
2020/12/31 02:24:31;;;;;;;16.98;11.52;;;4.00;92.00;;;;;;5091938;28;20103;-72
2020/12/31 02:26:57;;;;;;;16.88;10.73;;;4.00;91.90;;;;;;5093426;28;21030;-73
2020/12/31 02:29:22;;;;;;;16.98;11.90;;;4.00;91.90;;;;;;5093369;28;21405;-73
2020/12/31 02:31:48;;;;;;;16.35;11.07;;;4.00;91.90;;;;;;5091986;28;20379;-73
2020/12/31 02:34:14;;;;;;;20.42;11.73;;;4.00;91.90;;;;;;5091335;28;20064;-72
2020/12/31 02:36:39;;;;;;;15.73;9.95;;;4.00;91.90;;;;;;5091685;28;20373;-72
2020/12/31 02:39:08;;;;;;;14.52;10.13;;;4.00;91.80;;;;;;5087747;28;20044;-78
2020/12/31 02:41:35;;;;;;;15.38;9.63;;;4.00;91.80;;;;;;5089755;28;20043;-72
2020/12/31 02:44:02;;;;;;;14.77;9.30;;;4.00;91.70;;;;;;5090028;28;20047;-73
2020/12/31 02:46:28;;;;;;;16.73;10.02;;;4.00;91.80;;;;;;5093481;28;20035;-73
2020/12/31 02:48:53;;;;;;;16.55;9.77;;;4.00;91.80;;;;;;5086477;28;20031;-73
2020/12/31 02:51:19;;;;;;;15.90;9.82;;;4.00;91.80;;;;;;5089056;28;20047;-76
2020/12/31 02:53:46;;;;;;;13.23;9.15;;;4.00;91.70;;;;;;5087824;28;20047;-73
2020/12/31 02:56:14;;;;;;;13.55;9.20;;;4.00;91.60;;;;;;5088852;28;20059;-72
2020/12/31 02:58:40;;;;;;;16.67;9.55;;;4.00;91.50;;;;;;5088069;28;20504;-76
2020/12/31 03:01:07;;;;;;;16.05;8.95;;;4.00;91.60;;;;;;5087869;28;20067;-73
2020/12/31 03:03:33;;;;;;;16.48;10.07;;;4.00;91.60;;;;;;5088599;28;20040;-73
2020/12/31 03:05:58;;;;;;;16.55;10.00;;;4.00;91.50;;;;;;5088649;28;20351;-73
2020/12/31 03:08:24;;;;;;;17.83;9.90;;;4.00;91.40;;;;;;5086229;28;20475;-74
2020/12/31 03:10:51;;;;;;;14.20;9.27;;;4.00;91.50;;;;;;5088714;28;20032;-73
2020/12/31 03:13:17;;;;;;;15.40;9.70;;;4.00;91.60;;;;;;5065999;28;20027;-73
2020/12/31 03:15:43;;;;;;;14.15;9.30;;;4.00;91.50;;;;;;5089066;28;20339;-73
2020/12/31 03:18:09;;;;;;;14.35;8.52;;;4.00;91.60;;;;;;5091481;28;20039;-73
2020/12/31 03:20:34;;;;;;;12.82;8.15;;;4.00;91.60;;;;;;5088478;28;20035;-72
2020/12/31 03:23:00;;;;;;;13.77;8.82;;;4.00;91.60;;;;;;5086798;28;20611;-75
2020/12/31 03:25:26;;;;;;;12.90;8.00;;;4.00;91.60;;;;;;5086817;28;20119;-77
2020/12/31 03:27:51;;;;;;;13.05;8.05;;;4.00;91.60;;;;;;5076302;28;20142;-74
2020/12/31 03:30:17;;;;;;;13.07;8.18;;;4.00;91.60;;;;;;5083818;28;20048;-77
2020/12/31 03:32:43;;;;;;;13.35;8.15;;;4.00;91.60;;;;;;5091031;28;20092;-73
2020/12/31 03:35:08;;;;;;;13.32;7.95;;;4.00;91.60;;;;;;5092477;28;20176;-74
2020/12/31 03:37:34;;;;;;;12.98;8.00;;;4.00;91.60;;;;;;5087451;28;20045;-74
2020/12/31 03:39:59;;;;;;;14.18;7.70;;;4.00;91.60;;;;;;5089113;28;21653;-75
2020/12/31 03:42:25;;;;;;;12.68;7.68;;;4.00;91.60;;;;;;5090633;28;20090;-73
2020/12/31 03:44:51;;;;;;;13.68;7.03;;;4.00;91.70;;;;;;5091846;28;20032;-72
2020/12/31 03:47:16;;;;;;;11.60;7.15;;;4.00;91.70;;;;;;5087788;28;20397;-73
2020/12/31 03:49:42;;;;;;;12.75;7.80;;;4.10;91.80;;;;;;5091248;28;20076;-75
2020/12/31 03:52:07;;;;;;;14.00;7.80;;;4.10;91.70;;;;;;5090294;28;20418;-73
2020/12/31 03:54:33;;;;;;;11.48;7.82;;;4.00;91.70;;;;;;5086806;28;20040;-75
2020/12/31 03:56:59;;;;;;;13.35;7.20;;;4.00;91.70;;;;;;5093852;28;20118;-74
2020/12/31 03:59:25;;;;;;;13.68;6.80;;;4.00;91.70;;;;;;5087311;28;20049;-73
2020/12/31 04:01:50;;;;;;;11.15;6.97;;;4.00;91.60;;;;;;5090763;28;20055;-72
2020/12/31 04:04:16;;;;;;;12.40;6.88;;;4.00;91.60;;;;;;5090769;28;20063;-74
2020/12/31 04:06:41;;;;;;;12.32;7.85;;;4.00;91.60;;;;;;5090589;28;20466;-74
2020/12/31 04:09:07;;;;;;;13.98;8.30;;;4.00;91.60;;;;;;5071646;28;20113;-73
2020/12/31 04:11:32;;;;;;;13.00;7.88;;;4.00;91.60;;;;;;5088203;28;20039;-76
2020/12/31 04:13:58;;;;;;;14.68;7.10;;;4.00;91.70;;;;;;5085956;28;20058;-73
2020/12/31 04:16:24;;;;;;;11.60;7.35;;;3.90;91.70;;;;;;5085438;28;20047;-74
2020/12/31 04:18:49;;;;;;;14.98;7.03;;;4.00;91.70;;;;;;5090253;28;20023;-73
2020/12/31 04:21:20;;;;;;;12.90;6.95;;;3.90;91.50;;;;;;5088662;28;20046;-74
2020/12/31 04:23:46;;;;;;;10.77;6.28;;;3.90;91.30;;;;;;5090443;28;20044;-76
2020/12/31 04:26:12;;;;;;;14.57;7.45;;;3.80;91.10;;;;;;5088718;28;20024;-73
2020/12/31 04:28:38;;;;;;;11.82;7.03;;;3.80;91.20;;;;;;5091101;28;20084;-73
2020/12/31 04:31:03;;;;;;;12.70;7.63;;;3.80;91.30;;;;;;5091572;28;20069;-73
2020/12/31 04:33:29;;;;;;;14.93;8.15;;;3.70;91.40;;;;;;5087577;28;20064;-74
2020/12/31 04:35:55;;;;;;;14.93;7.40;;;3.80;91.40;;;;;;5089528;28;20038;-75
2020/12/31 04:38:21;;;;;;;10.32;6.88;;;3.70;91.40;;;;;;5089046;28;20044;-74
2020/12/31 04:40:47;;;;;;;13.68;7.72;;;3.70;91.50;;;;;;5089285;28;20915;-75
2020/12/31 04:43:14;;;;;;;12.05;7.03;;;3.70;91.50;;;;;;5090050;28;20028;-74
2020/12/31 04:45:42;;;;;;;11.43;7.55;;;3.60;91.50;;;;;;5088546;28;20481;-74
2020/12/31 04:48:33;;;;;;;14.02;8.90;;;3.60;91.50;;;;;;5092535;28;20031;-74
2020/12/31 04:51:01;;;;;;;12.77;7.63;;;3.60;91.50;;;;;;5091074;28;20040;-72
2020/12/31 04:53:27;;;;;;;11.55;6.55;;;3.60;91.60;;;;;;5074533;28;20055;-74
2020/12/31 04:55:53;;;;;;;12.68;7.32;;;3.60;91.70;;;;;;5093237;28;20463;-73
2020/12/31 04:58:19;;;;;;;11.98;7.10;;;3.60;91.70;;;;;;5097199;28;20040;-73
2020/12/31 05:00:46;;;;;;;11.90;6.90;;;3.50;91.60;;;;;;5075706;28;20245;-75
2020/12/31 05:03:12;;;;;;;11.15;7.00;;;3.50;91.70;;;;;;5093638;28;20044;-74
2020/12/31 05:05:38;;;;;;;10.77;7.13;;;3.50;91.70;;;;;;5092412;28;20028;-73
2020/12/31 05:08:05;;;;;;;11.55;6.95;;;3.50;91.70;;;;;;5076508;28;20358;-76
2020/12/31 05:10:30;;;;;;;10.50;6.68;;;3.50;91.70;;;;;;5090844;28;20043;-73
2020/12/31 05:13:07;;;;;;;12.23;6.55;;;3.50;91.70;;;;;;5093033;28;20480;-73
2020/12/31 05:15:40;;;;;;;9.85;5.82;;;3.50;91.80;;;;;;5095130;28;20039;-72
2020/12/31 05:18:19;;;;;;;12.02;6.90;;;3.50;91.70;;;;;;5091377;28;20459;-74
2020/12/31 05:20:50;;;;;;;12.20;6.53;;;3.40;91.70;;;;;;5094528;28;20466;-73
2020/12/31 05:23:18;;;;;;;11.45;6.53;;;3.40;91.60;;;;;;5089470;28;20040;-74
2020/12/31 05:25:44;;;;;;;10.65;6.47;;;3.40;91.70;;;;;;5090266;28;20055;-73
2020/12/31 05:28:30;;;;;;;11.35;6.50;;;3.40;91.70;;;;;;5094839;28;20036;-74
2020/12/31 05:31:01;;;;;;;10.38;6.35;;;3.40;91.80;;;;;;5088488;28;20039;-74
2020/12/31 05:33:33;;;;;;;8.75;6.35;;;3.40;91.70;;;;;;5092611;28;20040;-73
2020/12/31 05:36:25;;;;;;;11.82;6.72;;;3.50;91.50;;;;;;5094832;28;20115;-72
2020/12/31 05:38:57;;;;;;;10.70;6.65;;;3.40;91.50;;;;;;5090533;28;20052;-75
2020/12/31 05:41:33;;;;;;;11.95;6.07;;;3.40;91.50;;;;;;5089264;28;20055;-72
2020/12/31 05:44:01;;;;;;;10.63;6.72;;;3.40;91.60;;;;;;5092635;28;20481;-76
2020/12/31 05:46:29;;;;;;;10.93;6.85;;;3.40;91.60;;;;;;5071404;28;20386;-74
2020/12/31 05:48:58;;;;;;;9.93;6.60;;;3.40;91.60;;;;;;5093807;28;20040;-73
2020/12/31 05:51:34;;;;;;;11.63;7.30;;;3.40;91.70;;;;;;5091931;28;20035;-77
2020/12/31 05:54:14;;;;;;;10.95;6.57;;;3.40;91.70;;;;;;5080928;28;20040;-72
2020/12/31 05:56:41;;;;;;;10.88;7.00;;;3.40;91.70;;;;;;5092299;28;20028;-73
2020/12/31 05:59:15;;;;;;;11.52;6.88;;;3.40;91.80;;;;;;5093431;28;20024;-74
2020/12/31 06:01:59;;;;;;;12.13;6.95;;;3.40;91.90;;;;;;5091661;28;20047;-73
2020/12/31 06:04:31;;;;;;;12.50;7.07;;;3.40;91.90;;;;;;5091883;28;20111;-73
2020/12/31 06:07:01;;;;;;;10.50;6.82;;;3.40;91.90;;;;;;5091590;28;20027;-74
2020/12/31 06:09:36;;;;;;;10.95;6.68;;;3.40;91.90;;;;;;5093447;28;20024;-72
2020/12/31 06:12:08;;;;;;;12.10;6.75;;;3.40;91.90;;;;;;5094885;28;20613;-72
2020/12/31 06:14:35;;;;;;;12.40;7.43;;;3.40;91.90;;;;;;5090682;28;20475;-72
2020/12/31 06:17:04;;;;;;;10.95;7.07;;;3.30;91.90;;;;;;5072671;28;20032;-76
2020/12/31 06:19:41;;;;;;;11.90;7.40;;;3.40;91.90;;;;;;5074818;28;20036;-73
2020/12/31 06:22:08;;;;;;;12.73;8.38;;;3.40;92.00;;;;;;5089488;28;20139;-72
2020/12/31 06:24:45;;;;;;;14.25;8.43;;;3.30;92.00;;;;;;5088679;28;20042;-72
2020/12/31 06:27:15;;;;;;;17.27;9.40;;;3.30;92.00;;;;;;5073557;28;20415;-73
2020/12/31 06:29:41;;;;;;;11.55;8.52;;;3.30;91.90;;;;;;5095449;28;20039;-73
2020/12/31 06:32:19;;;;;;;11.63;8.40;;;3.30;91.90;;;;;;5089845;28;20032;-76
2020/12/31 06:34:45;;;;;;;10.88;7.00;;;3.20;91.80;;;;;;5090937;28;20092;-72
2020/12/31 06:37:12;;;;;;;11.52;7.07;;;3.20;91.80;;;;;;5090677;28;20080;-74
2020/12/31 06:39:40;;;;;;;11.77;7.45;;;3.20;91.80;;;;;;5091839;28;20054;-74
2020/12/31 06:42:06;;;;;;;12.57;7.60;;;3.20;91.80;;;;;;5089511;28;20040;-77
2020/12/31 06:44:33;;;;;;;13.80;7.95;;;3.20;91.60;;;;;;5094414;28;20115;-74
2020/12/31 06:46:59;;;;;;;11.85;8.40;;;3.20;91.60;;;;;;5093272;28;20032;-73
2020/12/31 06:49:51;;;;;;;9.90;7.53;;;3.10;91.50;;;;;;5089926;28;20788;-75
2020/12/31 06:52:21;;;;;;;11.82;7.32;;;3.10;91.50;;;;;;5088321;28;20459;-73
2020/12/31 06:54:47;;;;;;;11.02;7.60;;;3.10;91.50;;;;;;5093140;28;20036;-75
2020/12/31 06:57:36;;;;;;;13.40;9.07;;;3.10;91.60;;;;;;5089423;28;20124;-74
2020/12/31 07:00:04;;;;;;;17.58;11.77;;;3.00;91.70;;;;;;5087413;28;20039;-77
2020/12/31 07:02:42;;;;;;;18.10;12.75;;;3.00;91.80;;;;;;5091611;28;20036;-72
2020/12/31 07:05:21;;;;;;;29.60;18.77;;;3.00;91.90;;;;;;5091590;28;20034;-73
2020/12/31 07:07:47;;;;;;;23.77;16.45;;;3.00;91.90;;;;;;5092147;28;20166;-73
2020/12/31 07:10:13;;;;;;;21.20;15.15;;;3.00;92.00;;;;;;5091715;28;20135;-77
2020/12/31 07:12:45;;;;;;;23.00;16.02;;;3.00;92.00;;;;;;5092536;28;20103;-73
2020/12/31 07:15:15;;;;;;;27.75;18.92;;;2.90;92.00;;;;;;5089040;28;20036;-73
2020/12/31 07:17:47;;;;;;;25.48;17.05;;;2.90;92.00;;;;;;5090202;28;20059;-72
2020/12/31 07:20:15;;;;;;;30.55;21.60;;;2.90;92.10;;;;;;5085650;28;20044;-74
2020/12/31 07:22:42;;;;;;;36.03;24.27;;;2.90;92.20;;;;;;5087831;28;20040;-72
2020/12/31 07:25:15;;;;;;;31.02;19.75;;;2.80;92.20;;;;;;5088337;28;20378;-73
2020/12/31 07:27:43;;;;;;;22.63;16.50;;;2.80;92.20;;;;;;5089248;28;20032;-75
2020/12/31 07:30:22;;;;;;;22.17;14.57;;;2.80;92.20;;;;;;5087326;28;20036;-76
2020/12/31 07:32:48;;;;;;;18.67;13.85;;;2.70;92.20;;;;;;5068901;28;20538;-73
2020/12/31 07:35:38;;;;;;;18.60;13.35;;;2.70;92.20;;;;;;5087720;28;20108;-73
2020/12/31 07:38:04;;;;;;;19.15;12.80;;;2.70;92.10;;;;;;5086901;28;20051;-74
2020/12/31 07:40:54;;;;;;;15.27;11.07;;;2.70;91.90;;;;;;5088555;28;20483;-74
2020/12/31 07:43:22;;;;;;;17.60;12.65;;;2.70;91.80;;;;;;5093263;28;20058;-73
2020/12/31 07:45:49;;;;;;;21.10;13.27;;;2.70;91.80;;;;;;5085007;28;20555;-73
2020/12/31 07:48:16;;;;;;;19.50;12.88;;;2.70;91.80;;;;;;5088895;28;20123;-74
2020/12/31 07:50:42;;;;;;;17.95;13.60;;;2.70;91.80;;;;;;5089034;28;20039;-75
2020/12/31 07:53:12;;;;;;;17.52;13.23;;;2.60;91.90;;;;;;5089083;28;20036;-75
2020/12/31 07:55:46;;;;;;;16.88;12.10;;;2.60;91.90;;;;;;5074222;28;20040;-72
2020/12/31 07:58:12;;;;;;;17.30;11.75;;;2.60;92.00;;;;;;5087466;28;20036;-72
2020/12/31 08:00:38;;;;;;;16.95;11.02;;;2.60;92.00;;;;;;5087043;28;20044;-73
2020/12/31 08:03:08;;;;;;;13.88;11.13;;;2.50;92.00;;;;;;5087680;28;20445;-74
2020/12/31 08:05:34;;;;;;;13.82;11.32;;;2.50;92.20;;;;;;5089788;28;20063;-73
2020/12/31 08:07:59;;;;;;;16.67;12.02;;;2.50;92.20;;;;;;5088989;28;20132;-73
2020/12/31 08:10:26;;;;;;;15.70;11.90;;;2.50;92.30;;;;;;5084779;28;20550;-73
2020/12/31 08:13:00;;;;;;;15.65;11.65;;;2.60;92.40;;;;;;5088132;28;20576;-76
2020/12/31 08:15:26;;;;;;;15.90;12.15;;;2.50;92.40;;;;;;5092240;28;20036;-72
2020/12/31 08:17:54;;;;;;;16.50;12.77;;;2.50;92.40;;;;;;5085018;28;20435;-73
2020/12/31 08:20:21;;;;;;;17.50;12.48;;;2.50;92.50;;;;;;5086804;28;20065;-73
2020/12/31 08:22:51;;;;;;;15.98;12.23;;;2.60;92.50;;;;;;5091566;28;20147;-75
2020/12/31 08:25:21;;;;;;;15.52;11.30;;;2.60;92.50;;;;;;5079253;28;20482;-74
2020/12/31 08:27:46;;;;;;;17.90;11.50;;;2.50;92.40;;;;;;5092490;28;20035;-76
2020/12/31 08:30:12;;;;;;;18.55;13.50;;;2.60;92.30;;;;;;5093409;28;20473;-73
2020/12/31 08:32:51;;;;;;;18.58;13.00;;;2.50;92.30;;;;;;5093490;28;20044;-74
2020/12/31 08:35:29;;;;;;;18.50;13.13;;;2.60;92.30;;;;;;5088397;28;20047;-73
2020/12/31 08:38:03;;;;;;;17.38;13.10;;;2.60;92.20;;;;;;5090202;28;20055;-74
2020/12/31 08:40:33;;;;;;;21.33;13.90;;;2.60;92.20;;;;;;5090839;28;20031;-72
2020/12/31 08:42:59;;;;;;;18.67;12.57;;;2.60;92.20;;;;;;5094059;28;20272;-76
2020/12/31 08:45:33;;;;;;;19.50;14.70;;;2.60;92.20;;;;;;5093244;28;20162;-77
2020/12/31 08:48:37;;;;;;;15.90;13.32;;;2.70;92.30;;;;;;5091848;28;20034;-74
2020/12/31 08:51:15;;;;;;;19.02;14.30;;;2.70;92.20;;;;;;5023875;28;20049;-72
2020/12/31 08:53:53;;;;;;;18.92;15.38;;;2.80;92.10;;;;;;5031874;28;20045;-75
2020/12/31 08:56:20;;;;;;;25.48;18.15;;;2.80;92.10;;;;;;5069763;28;20035;-72
2020/12/31 08:58:46;;;;;;;28.13;20.38;;;2.90;91.90;;;;;;5089671;28;20055;-72
2020/12/31 09:01:24;;;;;;;26.55;20.30;;;2.90;91.80;;;;;;5089969;28;20030;-76
2020/12/31 09:03:51;;;;;;;25.38;18.40;;;3.00;91.80;;;;;;5090880;28;20474;-76
2020/12/31 09:06:24;;;;;;;21.15;15.40;;;3.00;91.80;;;;;;5072396;28;20718;-73
2020/12/31 09:08:50;;;;;;;20.33;14.95;;;3.00;91.80;;;;;;5091569;28;20028;-73
2020/12/31 09:11:24;;;;;;;19.42;16.25;;;3.10;91.90;;;;;;5089414;28;20036;-73
2020/12/31 09:13:50;;;;;;;22.65;15.60;;;3.20;91.80;;;;;;5092320;28;20051;-75
2020/12/31 09:16:16;;;;;;;21.73;17.58;;;3.30;91.60;;;;;;5094357;28;20032;-73
2020/12/31 09:18:43;;;;;;;24.05;18.27;;;3.30;91.30;;;;;;5091149;28;20378;-73
2020/12/31 09:21:10;;;;;;;25.33;18.75;;;3.40;91.10;;;;;;5092715;28;20035;-72
2020/12/31 09:23:36;;;;;;;24.15;19.25;;;3.40;90.90;;;;;;5093814;28;20062;-72
2020/12/31 09:26:02;;;;;;;23.45;17.60;;;3.40;90.90;;;;;;5069534;28;20319;-73
2020/12/31 09:28:28;;;;;;;22.05;17.40;;;3.50;91.00;;;;;;5077680;28;20475;-75
2020/12/31 09:30:55;;;;;;;21.50;16.08;;;3.50;91.00;;;;;;5093675;28;20119;-73
2020/12/31 09:33:24;;;;;;;17.77;14.70;;;3.50;91.00;;;;;;5093950;28;20040;-72
2020/12/31 09:35:49;;;;;;;19.80;15.88;;;3.60;91.00;;;;;;5088168;28;20039;-73
2020/12/31 09:38:18;;;;;;;17.77;14.43;;;3.70;91.00;;;;;;5098257;28;20063;-73
2020/12/31 09:40:45;;;;;;;21.00;14.93;;;3.70;91.00;;;;;;5074044;28;20024;-72
2020/12/31 09:43:11;;;;;;;15.38;11.95;;;3.70;90.90;;;;;;5099043;28;20043;-76
2020/12/31 09:45:38;;;;;;;17.40;11.80;;;3.70;90.80;;;;;;5094765;28;20027;-73
2020/12/31 09:48:05;;;;;;;16.95;12.38;;;3.80;90.70;;;;;;5094391;28;20142;-73
2020/12/31 09:50:31;;;;;;;15.15;11.45;;;3.80;90.50;;;;;;5094411;28;20533;-71
2020/12/31 09:52:58;;;;;;;15.88;11.68;;;3.80;90.40;;;;;;5090398;28;20040;-71
2020/12/31 09:55:24;;;;;;;15.85;11.82;;;3.80;90.40;;;;;;5098311;28;20119;-72
2020/12/31 09:57:50;;;;;;;17.02;12.05;;;3.80;90.50;;;;;;5091230;28;20947;-71
2020/12/31 10:00:16;;;;;;;16.80;11.80;;;3.80;90.60;;;;;;5091168;28;20034;-72
2020/12/31 10:02:42;;;;;;;17.63;12.20;;;3.80;90.80;;;;;;5087421;28;20115;-72
2020/12/31 10:05:08;;;;;;;16.05;11.05;;;3.90;90.70;;;;;;5091144;28;20493;-73
2020/12/31 10:07:33;;;;;;;15.60;11.32;;;3.90;90.60;;;;;;5088850;28;20143;-72
2020/12/31 10:09:59;;;;;;;15.52;11.30;;;3.90;90.20;;;;;;5090932;28;20111;-72
2020/12/31 10:12:25;;;;;;;15.73;11.60;;;4.00;90.40;;;;;;5091430;28;20036;-71
2020/12/31 10:14:51;;;;;;;20.73;12.55;;;4.10;90.10;;;;;;5088314;28;20443;-72
2020/12/31 10:17:17;;;;;;;16.27;12.63;;;4.10;90.10;;;;;;5092390;28;20032;-72
2020/12/31 10:19:42;;;;;;;18.08;13.35;;;4.10;89.80;;;;;;5084540;28;20047;-73
2020/12/31 10:22:09;;;;;;;17.08;12.50;;;4.10;89.50;;;;;;5086730;28;20039;-75
2020/12/31 10:24:35;;;;;;;17.50;13.15;;;4.10;89.40;;;;;;5086453;28;20115;-72
2020/12/31 10:27:01;;;;;;;17.42;12.15;;;4.10;89.40;;;;;;5089475;28;20039;-73
2020/12/31 10:29:26;;;;;;;16.58;12.40;;;4.20;89.40;;;;;;5089032;28;20467;-70
2020/12/31 10:31:53;;;;;;;17.23;13.50;;;4.10;89.40;;;;;;5084252;28;20036;-71
2020/12/31 10:34:20;;;;;;;17.17;11.57;;;4.10;89.40;;;;;;5087293;28;20093;-73
2020/12/31 10:36:53;;;;;;;17.40;13.50;;;4.20;89.40;;;;;;5087282;28;20451;-71
2020/12/31 10:39:19;;;;;;;18.40;15.30;;;4.20;89.20;;;;;;5087664;28;20097;-72
2020/12/31 10:41:46;;;;;;;18.95;14.65;;;4.20;89.10;;;;;;5090009;28;20024;-71
2020/12/31 10:44:13;;;;;;;19.00;14.75;;;4.20;89.00;;;;;;5088299;28;20035;-72
2020/12/31 10:46:39;;;;;;;15.50;12.40;;;4.20;89.10;;;;;;5086183;28;20034;-72
2020/12/31 10:49:05;;;;;;;15.32;11.38;;;4.10;88.90;;;;;;5087506;28;20028;-74
2020/12/31 10:51:37;;;;;;;16.95;12.82;;;4.10;88.80;;;;;;5090379;28;20115;-74
2020/12/31 10:54:04;;;;;;;18.00;13.88;;;4.10;89.00;;;;;;5072612;28;20028;-74
2020/12/31 10:56:30;;;;;;;21.15;14.43;;;4.00;89.10;;;;;;5078541;28;20028;-74
2020/12/31 10:58:56;;;;;;;21.05;15.10;;;4.10;89.10;;;;;;5082034;28;20063;-73
2020/12/31 11:01:22;;;;;;;24.10;17.25;;;4.10;89.20;;;;;;5082434;28;20047;-73
2020/12/31 11:03:47;;;;;;;22.70;16.30;;;4.00;89.30;;;;;;5085122;28;20410;-71
2020/12/31 11:06:27;;;;;;;20.42;16.17;;;3.90;89.50;;;;;;5084337;28;20047;-71
2020/12/31 11:08:55;;;;;;;24.52;17.70;;;3.90;89.60;;;;;;5065342;28;20035;-71
2020/12/31 11:11:26;;;;;;;21.38;15.85;;;3.80;89.70;;;;;;5083386;28;20161;-74
2020/12/31 11:13:53;;;;;;;19.65;15.40;;;3.80;89.80;;;;;;5082728;28;20104;-73
2020/12/31 11:16:18;;;;;;;21.27;15.52;;;3.80;89.90;;;;;;5083044;28;20040;-73
2020/12/31 11:18:44;;;;;;;20.50;15.15;;;3.80;89.90;;;;;;5087170;28;20523;-73
2020/12/31 11:21:15;;;;;;;20.95;15.13;;;3.70;90.00;;;;;;5081940;28;20024;-73
2020/12/31 11:23:41;;;;;;;19.52;14.73;;;3.70;90.00;;;;;;5085076;28;20151;-73
2020/12/31 11:26:17;;;;;;;21.05;14.65;;;3.70;90.10;;;;;;5083715;28;20464;-75
2020/12/31 11:28:43;;;;;;;22.98;15.63;;;3.70;89.90;;;;;;5084229;28;20028;-73
2020/12/31 11:31:12;;;;;;;21.45;14.65;;;3.70;90.00;;;;;;5082184;28;20673;-70
2020/12/31 11:33:47;;;;;;;21.55;16.02;;;3.70;90.00;;;;;;5084871;28;20027;-73
2020/12/31 11:36:13;;;;;;;22.70;15.63;;;3.80;90.10;;;;;;5068601;28;20032;-71
2020/12/31 11:38:39;;;;;;;17.92;14.68;;;3.90;90.20;;;;;;5084154;28;20974;-71
2020/12/31 11:41:06;;;;;;;22.67;16.90;;;4.10;89.90;;;;;;5080905;28;20099;-71
2020/12/31 11:43:35;;;;;;;21.75;16.52;;;4.20;89.20;;;;;;5077813;28;20455;-77
2020/12/31 11:46:03;;;;;;;25.73;17.55;;;4.40;88.60;;;;;;5083493;28;20028;-75
2020/12/31 11:48:29;;;;;;;28.10;18.33;;;4.50;88.20;;;;;;5084442;28;20067;-75
2020/12/31 11:50:55;;;;;;;26.63;18.90;;;4.70;88.50;;;;;;5084882;28;20070;-81
2020/12/31 11:53:21;;;;;;;24.58;18.98;;;4.80;88.00;;;;;;5086659;28;20415;-74
2020/12/31 11:55:48;;;;;;;27.27;18.75;;;5.00;87.50;;;;;;5084181;28;20550;-74
2020/12/31 11:58:14;;;;;;;26.38;19.55;;;5.00;87.30;;;;;;5081672;28;20032;-77
2020/12/31 12:00:40;;;;;;;31.67;21.38;;;5.10;87.10;;;;;;5080157;28;20024;-73
2020/12/31 12:03:05;;;;;;;26.48;20.10;;;5.10;86.80;;;;;;5061956;28;20103;-73
2020/12/31 12:05:31;;;;;;;27.20;20.67;;;5.30;87.10;;;;;;5078548;28;20036;-72
2020/12/31 12:07:57;;;;;;;28.65;21.33;;;5.30;87.00;;;;;;5080132;28;20031;-76
2020/12/31 12:10:22;;;;;;;30.25;20.73;;;5.30;86.90;;;;;;5077764;28;20043;-75
2020/12/31 12:12:48;;;;;;;30.15;21.13;;;5.30;86.50;;;;;;5084816;28;20169;-75
2020/12/31 12:15:14;;;;;;;30.75;22.67;;;5.20;87.00;;;;;;5080437;28;20029;-73
2020/12/31 12:17:41;;;;;;;30.05;23.35;;;5.20;87.20;;;;;;5083591;28;20526;-76
2020/12/31 12:20:07;;;;;;;38.20;26.90;;;5.30;87.70;;;;;;5082057;28;20089;-74
2020/12/31 12:22:33;;;;;;;29.88;22.52;;;5.30;87.80;;;;;;5083932;28;20028;-77
2020/12/31 12:25:00;;;;;;;33.75;21.83;;;5.40;87.30;;;;;;5082956;28;20043;-76
2020/12/31 12:27:26;;;;;;;30.45;21.58;;;5.20;87.20;;;;;;5086775;28;20098;-74
2020/12/31 12:29:51;;;;;;;29.13;21.08;;;5.10;87.70;;;;;;5084300;28;20116;-73
2020/12/31 12:32:17;;;;;;;29.13;20.15;;;5.10;87.70;;;;;;5080815;28;20414;-77
2020/12/31 12:34:43;;;;;;;31.48;21.23;;;5.00;87.90;;;;;;5083038;28;20776;-76
2020/12/31 12:37:09;;;;;;;30.95;21.58;;;4.90;88.00;;;;;;5088384;28;20074;-79
2020/12/31 12:39:35;;;;;;;32.15;21.17;;;4.90;88.10;;;;;;5082060;28;20075;-73
2020/12/31 12:42:01;;;;;;;28.42;20.20;;;4.90;88.00;;;;;;5082528;28;20441;-79
2020/12/31 12:44:26;;;;;;;26.73;20.70;;;4.90;88.20;;;;;;5080604;28;20043;-74